createdAt,value
2017-12-13T00:00:54.253Z,6.33
2017-12-13T00:01:54.533Z,6.33
2017-12-13T00:02:54.549Z,6.38
2017-12-13T00:03:54.284Z,6.3
2017-12-13T00:04:54.563Z,6.31
2017-12-13T00:05:54.572Z,6.28
2017-12-13T00:06:54.584Z,6.28
2017-12-13T00:07:54.596Z,6.22
2017-12-13T00:08:54.604Z,6.24
2017-12-13T00:09:54.620Z,6.19
2017-12-13T00:10:54.656Z,6.2
2017-12-13T00:11:54.643Z,6.22
2017-12-13T00:12:54.654Z,6.17
2017-12-13T00:13:54.400Z,6.28
2017-12-13T00:14:54.141Z,6.17
2017-12-13T00:15:54.684Z,6.31
2017-12-13T00:16:54.741Z,6.19
2017-12-13T00:17:54.443Z,6.19
2017-12-13T00:18:54.721Z,6.2
2017-12-13T00:19:54.727Z,6.26
2017-12-13T00:20:54.475Z,6.17
2017-12-13T00:21:54.487Z,6.2
2017-12-13T00:22:54.763Z,6.16
2017-12-13T00:23:54.774Z,6.09
2017-12-13T00:24:54.784Z,6.12
2017-12-13T00:25:54.802Z,6.14
2017-12-13T00:26:54.808Z,6.09
2017-12-13T00:27:54.559Z,6.17
2017-12-13T00:28:54.564Z,6.14
2017-12-13T00:29:54.847Z,6.16
2017-12-13T00:30:54.591Z,6.11
2017-12-13T00:31:54.865Z,6.16
2017-12-13T00:32:54.878Z,6.05
2017-12-13T00:33:54.890Z,6.05
2017-12-13T00:34:54.903Z,6.14
2017-12-13T00:35:54.920Z,6.05
2017-12-13T00:36:54.656Z,6.02
2017-12-13T00:37:54.936Z,6.02
2017-12-13T00:38:54.986Z,6.09
2017-12-13T00:39:54.688Z,6.05
2017-12-13T00:40:54.700Z,6.02
2017-12-13T00:41:54.974Z,6.07
2017-12-13T00:42:54.991Z,5.99
2017-12-13T00:43:55.001Z,6.01
2017-12-13T00:44:55.010Z,5.99
2017-12-13T00:45:55.024Z,5.98
2017-12-13T00:46:54.768Z,6.04
2017-12-13T00:47:54.778Z,5.94
2017-12-13T00:48:55.059Z,6.01
2017-12-13T00:49:55.070Z,6.02
2017-12-13T00:50:54.808Z,6.01
2017-12-13T00:51:54.824Z,5.99
2017-12-13T00:52:55.095Z,5.98
2017-12-13T00:53:55.110Z,5.99
2017-12-13T00:54:55.124Z,6.05
2017-12-13T00:55:55.136Z,5.98
2017-12-13T00:56:55.143Z,5.97
2017-12-13T00:57:55.156Z,5.98
2017-12-13T00:58:55.176Z,5.98
2017-12-13T00:59:54.911Z,5.94
2017-12-13T01:00:55.188Z,6.01
2017-12-13T01:01:55.201Z,5.99
2017-12-13T01:02:55.215Z,5.99
2017-12-13T01:03:55.296Z,5.87
2017-12-13T01:04:55.028Z,5.91
2017-12-13T01:05:55.316Z,5.94
2017-12-13T01:06:55.328Z,5.98
2017-12-13T01:07:55.069Z,6.02
2017-12-13T01:08:55.080Z,5.99
2017-12-13T01:09:55.360Z,5.94
2017-12-13T01:10:55.380Z,5.99
2017-12-13T01:11:55.381Z,5.93
2017-12-13T01:12:55.394Z,5.94
2017-12-13T01:13:54.857Z,5.94
2017-12-13T01:14:55.411Z,5.89
2017-12-13T01:15:55.150Z,5.86
2017-12-13T01:16:55.441Z,5.87
2017-12-13T01:17:55.450Z,5.84
2017-12-13T01:18:55.184Z,6.01
2017-12-13T01:19:55.195Z,5.93
2017-12-13T01:20:55.208Z,5.89
2017-12-13T01:21:55.215Z,5.87
2017-12-13T01:22:55.229Z,5.89
2017-12-13T01:23:55.564Z,5.89
2017-12-13T01:24:55.526Z,5.84
2017-12-13T01:25:55.534Z,5.83
2017-12-13T01:26:55.548Z,5.87
2017-12-13T01:27:55.571Z,5.8
2017-12-13T01:28:55.293Z,5.79
2017-12-13T01:29:55.578Z,5.76
2017-12-13T01:30:55.594Z,5.82
2017-12-13T01:31:55.606Z,5.73
2017-12-13T01:32:55.615Z,5.8
2017-12-13T01:33:55.399Z,5.76
2017-12-13T01:34:55.362Z,5.8
2017-12-13T01:35:55.647Z,5.75
2017-12-13T01:36:55.660Z,5.76
2017-12-13T01:37:55.676Z,5.8
2017-12-13T01:39:12.580Z,5.72
2017-12-13T01:39:55.693Z,5.73
2017-12-13T01:40:55.429Z,5.75
2017-12-13T01:41:55.718Z,5.76
2017-12-13T01:42:55.722Z,5.76
2017-12-13T01:43:55.459Z,5.75
2017-12-13T01:44:55.798Z,5.75
2017-12-13T01:45:55.483Z,5.72
2017-12-13T01:46:55.773Z,5.73
2017-12-13T01:47:55.779Z,5.72
2017-12-13T01:48:55.511Z,5.73
2017-12-13T01:49:55.574Z,5.69
2017-12-13T01:50:55.540Z,5.76
2017-12-13T01:51:55.823Z,5.72
2017-12-13T01:52:55.558Z,5.76
2017-12-13T01:53:55.567Z,5.73
2017-12-13T01:54:55.629Z,5.75
2017-12-13T01:55:55.586Z,5.73
2017-12-13T01:56:55.882Z,5.75
2017-12-13T01:57:55.617Z,5.76
2017-12-13T01:58:55.893Z,5.76
2017-12-13T01:59:55.906Z,5.72
2017-12-13T02:00:55.920Z,5.76
2017-12-13T02:01:55.932Z,5.72
2017-12-13T02:02:55.942Z,5.75
2017-12-13T02:03:55.679Z,5.75
2017-12-13T02:04:55.967Z,5.76
2017-12-13T02:05:55.421Z,5.76
2017-12-13T02:06:55.989Z,5.73
2017-12-13T02:07:55.996Z,5.66
2017-12-13T02:08:56.013Z,5.68
2017-12-13T02:09:56.518Z,5.75
2017-12-13T02:10:56.028Z,5.79
2017-12-13T02:11:56.038Z,5.72
2017-12-13T02:12:56.048Z,5.79
2017-12-13T02:13:56.083Z,5.79
2017-12-13T02:14:56.123Z,5.8
2017-12-13T02:15:56.081Z,5.68
2017-12-13T02:16:56.110Z,5.76
2017-12-13T02:17:56.106Z,5.73
2017-12-13T02:18:56.119Z,5.72
2017-12-13T02:19:55.909Z,5.73
2017-12-13T02:20:56.133Z,5.72
2017-12-13T02:21:56.146Z,5.76
2017-12-13T02:22:55.879Z,5.66
2017-12-13T02:23:55.891Z,5.75
2017-12-13T02:24:55.902Z,5.8
2017-12-13T02:25:56.190Z,5.76
2017-12-13T02:26:55.926Z,5.71
2017-12-13T02:27:55.659Z,5.8
2017-12-13T02:28:55.672Z,5.79
2017-12-13T02:29:56.240Z,5.79
2017-12-13T02:30:56.248Z,5.79
2017-12-13T02:31:56.252Z,5.75
2017-12-13T02:32:55.989Z,5.82
2017-12-13T02:33:56.280Z,5.8
2017-12-13T02:34:56.288Z,5.73
2017-12-13T02:35:56.018Z,5.75
2017-12-13T02:36:56.312Z,5.76
2017-12-13T02:37:56.323Z,5.72
2017-12-13T02:38:56.346Z,5.76
2017-12-13T02:39:56.340Z,5.8
2017-12-13T02:40:56.352Z,5.75
2017-12-13T02:41:56.362Z,5.79
2017-12-13T02:42:56.378Z,5.75
2017-12-13T02:43:56.383Z,5.75
2017-12-13T02:44:56.393Z,5.75
2017-12-13T02:45:56.404Z,5.72
2017-12-13T02:46:56.144Z,5.73
2017-12-13T02:47:56.427Z,5.73
2017-12-13T02:48:56.440Z,5.76
2017-12-13T02:49:56.514Z,5.75
2017-12-13T02:50:56.465Z,5.71
2017-12-13T02:51:56.480Z,5.75
2017-12-13T02:52:56.228Z,5.79
2017-12-13T02:53:56.499Z,5.71
2017-12-13T02:54:56.228Z,5.8
2017-12-13T02:55:56.237Z,5.76
2017-12-13T02:56:56.530Z,5.76
2017-12-13T02:57:56.535Z,5.75
2017-12-13T02:58:56.551Z,5.73
2017-12-13T02:59:56.560Z,5.73
2017-12-13T03:00:56.567Z,5.72
2017-12-13T03:01:56.579Z,5.73
2017-12-13T03:02:56.599Z,5.66
2017-12-13T03:03:56.336Z,5.76
2017-12-13T03:04:56.382Z,5.66
2017-12-13T03:05:56.620Z,5.69
2017-12-13T03:06:56.089Z,5.68
2017-12-13T03:07:56.642Z,5.69
2017-12-13T03:08:56.378Z,5.71
2017-12-13T03:09:56.716Z,5.66
2017-12-13T03:10:56.401Z,5.73
2017-12-13T03:11:56.691Z,5.73
2017-12-13T03:12:56.422Z,5.65
2017-12-13T03:13:56.708Z,5.73
2017-12-13T03:14:56.440Z,5.73
2017-12-13T03:15:56.466Z,5.72
2017-12-13T03:16:56.469Z,5.61
2017-12-13T03:17:56.478Z,5.73
2017-12-13T03:18:56.760Z,5.76
2017-12-13T03:19:56.776Z,5.75
2017-12-13T03:20:56.784Z,5.64
2017-12-13T03:21:56.519Z,5.72
2017-12-13T03:22:56.252Z,5.64
2017-12-13T03:23:56.540Z,5.59
2017-12-13T03:24:56.835Z,5.66
2017-12-13T03:25:56.835Z,5.68
2017-12-13T03:26:56.578Z,5.66
2017-12-13T03:27:56.861Z,5.65
2017-12-13T03:28:56.865Z,5.66
2017-12-13T03:29:56.880Z,5.68
2017-12-13T03:30:56.897Z,5.64
2017-12-13T03:31:56.900Z,5.62
2017-12-13T03:32:56.359Z,5.65
2017-12-13T03:33:56.925Z,5.61
2017-12-13T03:34:56.940Z,5.59
2017-12-13T03:35:56.391Z,5.59
2017-12-13T03:36:56.957Z,5.64
2017-12-13T03:37:56.968Z,5.64
2017-12-13T03:38:56.700Z,5.65
2017-12-13T03:39:56.990Z,5.66
2017-12-13T03:40:56.722Z,5.61
2017-12-13T03:41:57.008Z,5.66
2017-12-13T03:42:57.018Z,5.66
2017-12-13T03:43:57.030Z,5.64
2017-12-13T03:44:56.768Z,5.68
2017-12-13T03:45:57.049Z,5.65
2017-12-13T03:46:57.062Z,5.59
2017-12-13T03:47:56.810Z,5.56
2017-12-13T03:48:57.085Z,5.66
2017-12-13T03:49:57.150Z,5.64
2017-12-13T03:50:56.829Z,5.62
2017-12-13T03:51:57.133Z,5.64
2017-12-13T03:52:56.852Z,5.54
2017-12-13T03:53:57.145Z,5.64
2017-12-13T03:54:56.598Z,5.64
2017-12-13T03:55:57.162Z,5.56
2017-12-13T03:56:57.168Z,5.61
2017-12-13T03:57:56.901Z,5.61
2017-12-13T03:58:57.191Z,5.57
2017-12-13T03:59:57.198Z,5.65
2017-12-13T04:00:56.655Z,5.56
2017-12-13T04:01:56.999Z,5.61
2017-12-13T04:02:57.283Z,5.59
2017-12-13T04:03:57.246Z,5.66
2017-12-13T04:04:56.975Z,5.54
2017-12-13T04:05:56.989Z,5.56
2017-12-13T04:06:57.274Z,5.57
2017-12-13T04:07:57.285Z,5.53
2017-12-13T04:08:57.295Z,5.65
2017-12-13T04:09:56.756Z,5.47
2017-12-13T04:10:57.325Z,5.61
2017-12-13T04:11:57.050Z,5.61
2017-12-13T04:12:56.814Z,5.56
2017-12-13T04:13:57.075Z,5.56
2017-12-13T04:14:57.086Z,5.5
2017-12-13T04:15:57.373Z,5.53
2017-12-13T04:16:57.383Z,5.47
2017-12-13T04:17:57.398Z,5.5
2017-12-13T04:18:57.134Z,5.56
2017-12-13T04:19:57.137Z,5.47
2017-12-13T04:20:57.427Z,5.54
2017-12-13T04:21:57.433Z,5.48
2017-12-13T04:22:57.448Z,5.43
2017-12-13T04:23:57.461Z,5.5
2017-12-13T04:24:57.528Z,5.5
2017-12-13T04:25:56.928Z,5.5
2017-12-13T04:26:57.216Z,5.48
2017-12-13T04:27:57.225Z,5.48
2017-12-13T04:28:57.510Z,5.46
2017-12-13T04:29:57.250Z,5.44
2017-12-13T04:30:57.277Z,5.39
2017-12-13T04:31:57.269Z,5.41
2017-12-13T04:32:57.555Z,5.41
2017-12-13T04:33:57.803Z,5.41
2017-12-13T04:34:57.602Z,5.44
2017-12-13T04:35:57.309Z,5.41
2017-12-13T04:36:57.338Z,5.44
2017-12-13T04:37:57.332Z,5.39
2017-12-13T04:38:57.341Z,5.44
2017-12-13T04:39:57.356Z,5.41
2017-12-13T04:40:57.359Z,5.33
2017-12-13T04:41:57.650Z,5.35
2017-12-13T04:42:57.432Z,5.3
2017-12-13T04:43:57.396Z,5.28
2017-12-13T04:44:57.403Z,5.28
2017-12-13T04:45:57.423Z,5.35
2017-12-13T04:46:57.705Z,5.3
2017-12-13T04:47:57.713Z,5.35
2017-12-13T04:48:57.447Z,5.32
2017-12-13T04:49:57.731Z,5.33
2017-12-13T04:50:57.741Z,5.33
2017-12-13T04:51:57.480Z,5.33
2017-12-13T04:52:57.493Z,5.38
2017-12-13T04:53:57.498Z,5.29
2017-12-13T04:54:57.787Z,5.38
2017-12-13T04:55:57.244Z,5.36
2017-12-13T04:56:57.531Z,5.29
2017-12-13T04:57:57.818Z,5.25
2017-12-13T04:58:57.553Z,5.32
2017-12-13T04:59:57.991Z,5.29
2017-12-13T05:00:57.677Z,5.25
2017-12-13T05:01:57.867Z,5.2
2017-12-13T05:02:57.869Z,5.2
2017-12-13T05:03:57.612Z,5.21
2017-12-13T05:04:57.889Z,5.2
2017-12-13T05:05:57.903Z,5.28
2017-12-13T05:06:57.638Z,5.21
2017-12-13T05:07:57.931Z,5.17
2017-12-13T05:08:57.933Z,5.21
2017-12-13T05:09:57.671Z,5.18
2017-12-13T05:10:57.961Z,5.18
2017-12-13T05:11:57.966Z,5.3
2017-12-13T05:12:57.791Z,5.25
2017-12-13T05:13:58.046Z,5.25
2017-12-13T05:14:58.288Z,5.18
2017-12-13T05:15:57.733Z,5.3
2017-12-13T05:16:57.740Z,5.28
2017-12-13T05:17:58.038Z,5.25
2017-12-13T05:18:58.040Z,5.17
2017-12-13T05:19:58.048Z,5.17
2017-12-13T05:20:57.783Z,5.23
2017-12-13T05:21:57.795Z,5.23
2017-12-13T05:22:57.809Z,5.23
2017-12-13T05:23:58.094Z,5.28
2017-12-13T05:24:58.098Z,5.23
2017-12-13T05:25:57.560Z,5.26
2017-12-13T05:26:58.151Z,5.32
2017-12-13T05:27:58.132Z,5.25
2017-12-13T05:28:57.875Z,5.18
2017-12-13T05:29:57.876Z,5.21
2017-12-13T05:30:57.943Z,5.23
2017-12-13T05:31:57.638Z,5.18
2017-12-13T05:32:57.926Z,5.18
2017-12-13T05:33:58.215Z,5.26
2017-12-13T05:34:58.206Z,5.2
2017-12-13T05:35:58.287Z,5.23
2017-12-13T05:36:57.959Z,5.21
2017-12-13T05:37:58.239Z,5.17
2017-12-13T05:38:57.974Z,5.18
2017-12-13T05:39:57.984Z,5.18
2017-12-13T05:40:58.277Z,5.2
2017-12-13T05:41:58.009Z,5.21
2017-12-13T05:42:58.022Z,5.18
2017-12-13T05:43:58.300Z,5.18
2017-12-13T05:44:58.057Z,5.15
2017-12-13T05:45:58.203Z,5.23
2017-12-13T05:46:58.052Z,5.2
2017-12-13T05:47:58.477Z,5.2
2017-12-13T05:48:58.095Z,5.21
2017-12-13T05:49:58.360Z,5.15
2017-12-13T05:50:58.103Z,5.14
2017-12-13T05:51:58.108Z,5.2
2017-12-13T05:52:58.400Z,5.21
2017-12-13T05:53:58.155Z,5.23
2017-12-13T05:54:58.412Z,5.21
2017-12-13T05:55:58.149Z,5.18
2017-12-13T05:56:58.435Z,5.14
2017-12-13T05:57:58.172Z,5.17
2017-12-13T05:58:58.449Z,5.18
2017-12-13T05:59:58.461Z,5.18
2017-12-13T06:00:57.924Z,5.15
2017-12-13T06:01:58.212Z,5.23
2017-12-13T06:02:58.222Z,5.17
2017-12-13T06:03:58.230Z,5.21
2017-12-13T06:04:57.967Z,5.15
2017-12-13T06:05:58.529Z,5.14
2017-12-13T06:06:57.986Z,5.17
2017-12-13T06:07:58.278Z,5.14
2017-12-13T06:08:58.288Z,5.18
2017-12-13T06:09:58.296Z,5.12
2017-12-13T06:10:58.583Z,5.12
2017-12-13T06:11:58.596Z,5.14
2017-12-13T06:12:58.323Z,5.08
2017-12-13T06:13:58.612Z,5.14
2017-12-13T06:14:58.347Z,5.1
2017-12-13T06:15:58.360Z,5.1
2017-12-13T06:16:58.372Z,5.18
2017-12-13T06:17:58.651Z,5.15
2017-12-13T06:18:58.387Z,5.11
2017-12-13T06:19:58.678Z,5.14
2017-12-13T06:20:58.693Z,5.1
2017-12-13T06:21:58.697Z,5.07
2017-12-13T06:22:58.706Z,5.1
2017-12-13T06:23:58.436Z,5.11
2017-12-13T06:24:58.729Z,5.14
2017-12-13T06:25:58.521Z,5.1
2017-12-13T06:26:58.755Z,5.11
2017-12-13T06:27:58.753Z,5.11
2017-12-13T06:28:58.491Z,5.11
2017-12-13T06:29:58.775Z,5.1
2017-12-13T06:30:58.237Z,5.11
2017-12-13T06:31:58.518Z,5.1
2017-12-13T06:32:58.539Z,5.07
2017-12-13T06:33:58.838Z,5.1
2017-12-13T06:34:58.576Z,5.1
2017-12-13T06:35:58.563Z,5.08
2017-12-13T06:36:58.854Z,5.08
2017-12-13T06:37:58.586Z,5.1
2017-12-13T06:38:58.869Z,5.05
2017-12-13T06:39:58.884Z,5.08
2017-12-13T06:40:58.960Z,5.07
2017-12-13T06:41:58.353Z,5.07
2017-12-13T06:42:58.645Z,5.07
2017-12-13T06:43:58.651Z,5.07
2017-12-13T06:44:58.658Z,5.08
2017-12-13T06:45:58.948Z,5.07
2017-12-13T06:46:58.679Z,5.11
2017-12-13T06:47:58.686Z,5.08
2017-12-13T06:48:58.973Z,5.08
2017-12-13T06:49:58.981Z,5.07
2017-12-13T06:50:58.989Z,5.08
2017-12-13T06:51:59.054Z,4.99
2017-12-13T06:52:58.462Z,5.05
2017-12-13T06:53:58.474Z,4.99
2017-12-13T06:54:58.763Z,5.04
2017-12-13T06:55:59.085Z,5.04
2017-12-13T06:56:59.054Z,5.02
2017-12-13T06:57:58.793Z,5.05
2017-12-13T06:58:58.796Z,5.07
2017-12-13T06:59:59.084Z,5.05
2017-12-13T07:00:58.828Z,5.05
2017-12-13T07:01:59.108Z,5.04
2017-12-13T07:02:59.116Z,5.04
2017-12-13T07:03:59.128Z,5.04
2017-12-13T07:04:58.861Z,5.07
2017-12-13T07:05:59.146Z,5.05
2017-12-13T07:06:59.205Z,4.97
2017-12-13T07:07:59.172Z,5.07
2017-12-13T07:08:59.191Z,4.97
2017-12-13T07:09:59.190Z,5
2017-12-13T07:10:58.921Z,5.08
2017-12-13T07:11:58.655Z,5
2017-12-13T07:12:58.944Z,4.99
2017-12-13T07:13:59.229Z,4.97
2017-12-13T07:14:59.244Z,4.99
2017-12-13T07:15:59.258Z,5
2017-12-13T07:16:59.039Z,5
2017-12-13T07:17:59.278Z,5.04
2017-12-13T07:18:59.282Z,4.87
2017-12-13T07:19:59.290Z,5
2017-12-13T07:20:59.302Z,5.02
2017-12-13T07:21:59.315Z,5.07
2017-12-13T07:22:59.333Z,4.99
2017-12-13T07:23:59.056Z,4.99
2017-12-13T07:24:58.792Z,5.02
2017-12-13T07:25:59.351Z,5.04
2017-12-13T07:26:59.424Z,4.99
2017-12-13T07:27:59.095Z,4.93
2017-12-13T07:28:59.382Z,5.02
2017-12-13T07:29:59.395Z,5.07
2017-12-13T07:30:59.136Z,5.07
2017-12-13T07:31:59.139Z,5.07
2017-12-13T07:32:59.151Z,5.08
2017-12-13T07:33:59.438Z,5.1
2017-12-13T07:34:59.447Z,5.15
2017-12-13T07:35:59.457Z,5.17
2017-12-13T07:36:59.240Z,5.15
2017-12-13T07:37:59.202Z,5.23
2017-12-13T07:38:59.210Z,5.15
2017-12-13T07:39:59.566Z,5.26
2017-12-13T07:40:59.508Z,5.28
2017-12-13T07:41:59.240Z,5.17
2017-12-13T07:42:59.252Z,5.18
2017-12-13T07:43:59.557Z,5.23
2017-12-13T07:44:59.275Z,5.26
2017-12-13T07:45:59.559Z,5.36
2017-12-13T07:46:59.666Z,5.33
2017-12-13T07:47:59.578Z,5.32
2017-12-13T07:48:59.315Z,5.28
2017-12-13T07:49:59.599Z,5.38
2017-12-13T07:50:59.334Z,5.38
2017-12-13T07:51:59.619Z,5.44
2017-12-13T07:52:59.636Z,5.36
2017-12-13T07:53:59.365Z,5.41
2017-12-13T07:54:59.651Z,5.46
2017-12-13T07:55:59.664Z,5.43
2017-12-13T07:56:59.677Z,5.44
2017-12-13T07:57:59.689Z,5.43
2017-12-13T07:58:59.698Z,5.41
2017-12-13T07:59:59.705Z,5.46
2017-12-13T08:00:59.451Z,5.47
2017-12-13T08:01:59.460Z,5.48
2017-12-13T08:02:59.751Z,5.47
2017-12-13T08:03:59.469Z,5.43
2017-12-13T08:04:59.893Z,5.47
2017-12-13T08:05:59.771Z,5.5
2017-12-13T08:06:59.222Z,5.48
2017-12-13T08:07:59.792Z,5.59
2017-12-13T08:08:59.535Z,5.5
2017-12-13T08:09:59.807Z,5.51
2017-12-13T08:10:59.544Z,5.61
2017-12-13T08:11:59.830Z,5.5
2017-12-13T08:12:59.844Z,5.68
2017-12-13T08:13:59.849Z,5.57
2017-12-13T08:14:59.308Z,5.62
2017-12-13T08:15:59.320Z,5.65
2017-12-13T08:16:59.879Z,5.65
2017-12-13T08:17:59.889Z,5.69
2017-12-13T08:18:59.628Z,5.66
2017-12-13T08:19:59.911Z,5.73
2017-12-13T08:20:59.929Z,5.73
2017-12-13T08:21:59.946Z,5.69
2017-12-13T08:22:59.942Z,5.76
2017-12-13T08:23:59.963Z,5.72
2017-12-13T08:24:59.692Z,5.69
2017-12-13T08:25:59.696Z,5.72
2017-12-13T08:26:59.985Z,5.72
2017-12-13T08:27:59.725Z,5.71
2017-12-13T08:28:59.739Z,5.8
2017-12-13T08:29:59.465Z,5.72
2017-12-13T08:30:59.750Z,5.71
2017-12-13T08:32:00.041Z,5.8
2017-12-13T08:33:00.048Z,5.8
2017-12-13T08:34:00.062Z,5.8
2017-12-13T08:35:00.089Z,5.76
2017-12-13T08:35:59.528Z,5.79
2017-12-13T08:37:00.087Z,5.73
2017-12-13T08:38:00.100Z,5.82
2017-12-13T08:39:00.113Z,5.82
2017-12-13T08:39:59.846Z,5.83
2017-12-13T08:40:59.858Z,5.9
2017-12-13T08:42:00.146Z,5.84
2017-12-13T08:43:00.157Z,5.87
2017-12-13T08:43:59.890Z,5.89
2017-12-13T08:45:00.175Z,5.86
2017-12-13T08:46:00.187Z,5.89
2017-12-13T08:46:59.922Z,5.93
2017-12-13T08:48:00.239Z,5.79
2017-12-13T08:48:59.949Z,5.91
2017-12-13T08:50:00.228Z,5.99
2017-12-13T08:50:59.966Z,5.86
2017-12-13T08:52:00.253Z,5.91
2017-12-13T08:52:59.984Z,5.91
2017-12-13T08:54:00.275Z,5.93
2017-12-13T08:55:00.290Z,5.91
2017-12-13T08:56:00.023Z,5.93
2017-12-13T08:57:00.311Z,5.86
2017-12-13T08:58:00.371Z,5.87
2017-12-13T08:59:00.329Z,6.01
2017-12-13T09:00:00.343Z,5.93
2017-12-13T09:00:59.802Z,5.97
2017-12-13T09:02:00.365Z,5.97
2017-12-13T09:03:00.370Z,5.91
2017-12-13T09:04:00.112Z,5.87
2017-12-13T09:05:00.399Z,5.86
2017-12-13T09:06:00.126Z,5.9
2017-12-13T09:07:00.132Z,5.98
2017-12-13T09:08:00.431Z,5.87
2017-12-13T09:09:00.432Z,5.9
2017-12-13T09:10:00.179Z,5.91
2017-12-13T09:11:00.455Z,5.9
2017-12-13T09:12:00.189Z,5.91
2017-12-13T09:13:00.479Z,5.89
2017-12-13T09:14:00.214Z,5.89
2017-12-13T09:15:00.224Z,5.87
2017-12-13T09:16:00.238Z,5.91
2017-12-13T09:17:00.521Z,5.94
2017-12-13T09:18:00.545Z,6.01
2017-12-13T09:19:00.551Z,5.91
2017-12-13T09:20:00.559Z,5.94
2017-12-13T09:21:00.579Z,5.89
2017-12-13T09:22:00.580Z,5.94
2017-12-13T09:23:00.311Z,6.02
2017-12-13T09:24:00.328Z,5.97
2017-12-13T09:25:00.367Z,5.94
2017-12-13T09:26:00.345Z,5.99
2017-12-13T09:27:00.634Z,5.94
2017-12-13T09:28:00.691Z,5.99
2017-12-13T09:29:00.377Z,5.93
2017-12-13T09:30:00.390Z,5.9
2017-12-13T09:31:00.679Z,5.91
2017-12-13T09:32:00.408Z,5.9
2017-12-13T09:33:00.419Z,5.9
2017-12-13T09:34:00.714Z,5.93
2017-12-13T09:35:00.442Z,5.97
2017-12-13T09:36:00.731Z,5.91
2017-12-13T09:37:00.739Z,5.89
2017-12-13T09:38:00.749Z,5.86
2017-12-13T09:39:00.488Z,5.9
2017-12-13T09:40:00.496Z,5.97
2017-12-13T09:41:00.781Z,5.93
2017-12-13T09:42:00.982Z,5.89
2017-12-13T09:43:00.809Z,5.93
2017-12-13T09:44:00.830Z,5.87
2017-12-13T09:45:00.550Z,5.87
2017-12-13T09:46:00.560Z,5.89
2017-12-13T09:47:00.848Z,5.9
2017-12-13T09:48:00.586Z,5.93
2017-12-13T09:49:00.594Z,5.98
2017-12-13T09:50:00.883Z,5.91
2017-12-13T09:51:00.618Z,5.99
2017-12-13T09:52:00.911Z,5.91
2017-12-13T09:53:00.636Z,5.91
2017-12-13T09:54:00.928Z,5.97
2017-12-13T09:55:00.943Z,5.9
2017-12-13T09:56:00.676Z,6.05
2017-12-13T09:57:00.959Z,5.89
2017-12-13T09:58:00.693Z,5.99
2017-12-13T09:59:00.702Z,5.94
2017-12-13T10:00:00.991Z,5.99
2017-12-13T10:01:00.998Z,6.01
2017-12-13T10:02:01.018Z,5.98
2017-12-13T10:03:00.749Z,5.99
2017-12-13T10:04:01.031Z,6.02
2017-12-13T10:05:01.043Z,6.08
2017-12-13T10:06:01.065Z,6.09
2017-12-13T10:07:01.069Z,6.05
2017-12-13T10:08:00.811Z,6.12
2017-12-13T10:09:01.092Z,6.07
2017-12-13T10:10:01.104Z,6.09
2017-12-13T10:11:01.110Z,6.11
2017-12-13T10:12:00.846Z,6.16
2017-12-13T10:13:01.132Z,6.11
2017-12-13T10:14:01.141Z,6.11
2017-12-13T10:15:00.881Z,6.14
2017-12-13T10:16:00.611Z,6.19
2017-12-13T10:17:00.901Z,6.09
2017-12-13T10:18:00.919Z,6.11
2017-12-13T10:19:01.203Z,6.17
2017-12-13T10:20:00.928Z,6.22
2017-12-13T10:21:00.665Z,6.12
2017-12-13T10:22:01.233Z,6.09
2017-12-13T10:23:01.317Z,6.19
2017-12-13T10:24:01.253Z,6.27
2017-12-13T10:25:00.716Z,6.17
2017-12-13T10:26:01.273Z,6.2
2017-12-13T10:27:01.286Z,6.22
2017-12-13T10:28:01.300Z,6.26
2017-12-13T10:29:01.067Z,6.19
2017-12-13T10:30:01.040Z,6.35
2017-12-13T10:31:01.051Z,6.27
2017-12-13T10:32:00.800Z,6.33
2017-12-13T10:33:01.351Z,6.31
2017-12-13T10:34:01.421Z,6.36
2017-12-13T10:35:01.373Z,6.33
2017-12-13T10:36:01.388Z,6.36
2017-12-13T10:37:01.397Z,6.38
2017-12-13T10:38:01.459Z,6.33
2017-12-13T10:39:01.414Z,6.45
2017-12-13T10:40:01.152Z,6.46
2017-12-13T10:41:01.160Z,6.49
2017-12-13T10:42:01.172Z,6.52
2017-12-13T10:43:01.187Z,6.48
2017-12-13T10:44:01.472Z,6.54
2017-12-13T10:45:01.203Z,6.57
2017-12-13T10:46:01.223Z,6.59
2017-12-13T10:47:01.511Z,6.54
2017-12-13T10:48:01.519Z,6.56
2017-12-13T10:49:01.249Z,6.56
2017-12-13T10:50:01.544Z,6.6
2017-12-13T10:51:01.272Z,6.64
2017-12-13T10:52:01.309Z,6.62
2017-12-13T10:53:01.578Z,6.63
2017-12-13T10:54:01.313Z,6.69
2017-12-13T10:55:01.634Z,6.72
2017-12-13T10:56:01.329Z,6.67
2017-12-13T10:57:01.340Z,6.7
2017-12-13T10:58:01.636Z,6.77
2017-12-13T10:59:01.366Z,6.78
2017-12-13T11:00:01.650Z,6.78
2017-12-13T11:01:01.669Z,6.74
2017-12-13T11:02:01.670Z,6.78
2017-12-13T11:03:01.406Z,6.87
2017-12-13T11:04:01.692Z,6.84
2017-12-13T11:05:01.714Z,6.84
2017-12-13T11:06:01.721Z,6.93
2017-12-13T11:07:01.723Z,6.88
2017-12-13T11:08:01.748Z,6.92
2017-12-13T11:09:01.207Z,6.93
2017-12-13T11:10:01.758Z,6.92
2017-12-13T11:11:01.222Z,6.92
2017-12-13T11:12:01.785Z,7.06
2017-12-13T11:13:01.523Z,7.03
2017-12-13T11:14:01.803Z,7.06
2017-12-13T11:15:01.822Z,7.03
2017-12-13T11:16:01.559Z,7.02
2017-12-13T11:17:01.844Z,7.06
2017-12-13T11:18:01.576Z,7.13
2017-12-13T11:19:01.868Z,7.1
2017-12-13T11:20:01.875Z,7.18
2017-12-13T11:21:01.903Z,7.21
2017-12-13T11:22:01.628Z,7.23
2017-12-13T11:23:01.633Z,7.15
2017-12-13T11:24:01.982Z,7.14
2017-12-13T11:25:01.933Z,7.14
2017-12-13T11:26:01.669Z,7.17
2017-12-13T11:27:01.400Z,7.2
2017-12-13T11:28:01.964Z,7.29
2017-12-13T11:29:01.975Z,7.29
2017-12-13T11:30:01.992Z,7.31
2017-12-13T11:31:01.997Z,7.29
2017-12-13T11:32:02.008Z,7.24
2017-12-13T11:33:01.751Z,7.29
2017-12-13T11:34:02.036Z,7.35
2017-12-13T11:35:01.772Z,7.35
2017-12-13T11:36:02.064Z,7.31
2017-12-13T11:37:02.068Z,7.36
2017-12-13T11:38:02.085Z,7.33
2017-12-13T11:39:01.818Z,7.43
2017-12-13T11:40:01.828Z,7.42
2017-12-13T11:41:02.116Z,7.39
2017-12-13T11:42:02.130Z,7.45
2017-12-13T11:43:02.137Z,7.47
2017-12-13T11:44:01.882Z,7.43
2017-12-13T11:45:02.161Z,7.45
2017-12-13T11:46:02.182Z,7.42
2017-12-13T11:47:02.188Z,7.47
2017-12-13T11:48:01.924Z,7.51
2017-12-13T11:49:02.215Z,7.48
2017-12-13T11:50:01.944Z,7.45
2017-12-13T11:51:01.964Z,7.53
2017-12-13T11:52:02.248Z,7.51
2017-12-13T11:53:01.701Z,7.48
2017-12-13T11:54:02.266Z,7.56
2017-12-13T11:55:02.001Z,7.51
2017-12-13T11:56:02.291Z,7.51
2017-12-13T11:57:02.026Z,7.54
2017-12-13T11:58:02.040Z,7.53
2017-12-13T11:59:02.344Z,7.53
2017-12-13T12:00:02.058Z,7.51
2017-12-13T12:01:01.794Z,7.48
2017-12-13T12:02:02.361Z,7.48
2017-12-13T12:03:02.094Z,7.48
2017-12-13T12:04:02.383Z,7.54
2017-12-13T12:05:02.121Z,7.61
2017-12-13T12:06:02.406Z,7.67
2017-12-13T12:07:02.421Z,7.6
2017-12-13T12:08:02.491Z,7.57
2017-12-13T12:09:02.491Z,7.61
2017-12-13T12:10:02.454Z,7.69
2017-12-13T12:11:01.910Z,7.6
2017-12-13T12:12:02.201Z,7.6
2017-12-13T12:13:02.211Z,7.73
2017-12-13T12:14:02.508Z,7.61
2017-12-13T12:15:02.510Z,7.75
2017-12-13T12:16:02.522Z,7.75
2017-12-13T12:17:02.258Z,7.77
2017-12-13T12:18:02.271Z,7.82
2017-12-13T12:19:02.612Z,7.79
2017-12-13T12:20:02.316Z,7.79
2017-12-13T12:21:02.309Z,7.83
2017-12-13T12:22:02.652Z,7.85
2017-12-13T12:23:02.607Z,7.93
2017-12-13T12:24:02.343Z,7.88
2017-12-13T12:25:02.647Z,7.94
2017-12-13T12:26:02.655Z,8
2017-12-13T12:27:02.384Z,8
2017-12-13T12:28:02.400Z,8.06
2017-12-13T12:29:02.739Z,8.01
2017-12-13T12:30:02.698Z,7.98
2017-12-13T12:31:02.704Z,7.98
2017-12-13T12:32:02.166Z,7.98
2017-12-13T12:33:02.459Z,8.01
2017-12-13T12:34:02.740Z,8
2017-12-13T12:35:02.487Z,7.95
2017-12-13T12:36:02.778Z,8.01
2017-12-13T12:37:02.772Z,8.12
2017-12-13T12:38:02.793Z,8.06
2017-12-13T12:39:02.855Z,8.08
2017-12-13T12:40:02.818Z,8.09
2017-12-13T12:41:02.826Z,8.03
2017-12-13T12:42:02.629Z,8.05
2017-12-13T12:43:02.847Z,8.09
2017-12-13T12:44:02.656Z,8.06
2017-12-13T12:45:02.887Z,8.1
2017-12-13T12:46:02.609Z,8.08
2017-12-13T12:47:02.623Z,8.06
2017-12-13T12:48:02.929Z,8.12
2017-12-13T12:49:02.642Z,8.09
2017-12-13T12:50:02.947Z,8.15
2017-12-13T12:51:02.392Z,8.1
2017-12-13T12:52:02.709Z,8.15
2017-12-13T12:53:02.694Z,8.16
2017-12-13T12:54:02.984Z,8.18
2017-12-13T12:55:02.720Z,8.13
2017-12-13T12:56:02.743Z,8.13
2017-12-13T12:57:02.742Z,8.09
2017-12-13T12:58:03.040Z,8.24
2017-12-13T12:59:02.774Z,8.16
2017-12-13T13:00:03.056Z,8.06
2017-12-13T13:01:03.072Z,8.06
2017-12-13T13:02:03.086Z,8.19
2017-12-13T13:03:02.818Z,8.15
2017-12-13T13:04:03.109Z,8.12
2017-12-13T13:05:03.118Z,8.12
2017-12-13T13:06:03.135Z,8.12
2017-12-13T13:07:02.866Z,8.1
2017-12-13T13:08:02.886Z,8.09
2017-12-13T13:09:03.170Z,8.16
2017-12-13T13:10:02.906Z,8.1
2017-12-13T13:11:03.196Z,8.15
2017-12-13T13:12:02.940Z,8.12
2017-12-13T13:13:02.967Z,8.18
2017-12-13T13:14:02.689Z,8.09
2017-12-13T13:15:02.973Z,8.08
2017-12-13T13:16:03.268Z,8.08
2017-12-13T13:17:02.995Z,8.12
2017-12-13T13:18:03.283Z,8.12
2017-12-13T13:19:02.737Z,8.16
2017-12-13T13:20:03.039Z,8.08
2017-12-13T13:21:03.317Z,8.12
2017-12-13T13:22:03.068Z,8.15